Time;durP1;ratioP1;P1;durP2;ratioP2;P2;SDS_P1;SDS_P2;PMS_P1;PMS_P2;Temp;Humidity;BMP_temperature;BMP_pressure;BME280_temperature;BME280_humidity;BME280_pressure;Samples;Min_cycle;Max_cycle;Signal;HPM_P1;HPM_P2
2023/07/30 00:00:29;;;;;;;3.38;1.30;;;;;14.20;93787.00;;;;7402867;19;20236;-79
2023/07/30 00:03:05;;;;;;;3.25;1.38;;;;;14.10;93796.00;;;;7400948;19;20197;-79
2023/07/30 00:05:40;;;;;;;2.95;1.63;;;;;14.20;93799.00;;;;7396459;19;20661;-79
2023/07/30 00:08:21;;;;;;;5.78;1.35;;;;;14.10;93797.00;;;;7401519;19;20195;-79
2023/07/30 00:10:58;;;;;;;1.15;1.02;;;;;14.00;93803.00;;;;7399591;19;20175;-79
2023/07/30 00:13:32;;;;;;;9.55;1.67;;;;;14.10;93808.00;;;;7400475;19;20600;-79
2023/07/30 00:16:07;;;;;;;10.90;1.90;;;;;14.10;93801.00;;;;7399792;19;20148;-79
2023/07/30 00:18:41;;;;;;;1.77;1.30;;;;;14.10;93803.00;;;;7401433;19;20616;-79
2023/07/30 00:21:09;;;;;;;1.98;1.65;;;;;14.20;93809.00;;;;7399848;19;20162;-80
2023/07/30 00:23:44;;;;;;;2.40;1.65;;;;;14.20;93801.00;;;;7399890;19;20149;-80
2023/07/30 00:26:18;;;;;;;1.92;1.30;;;;;14.30;93811.00;;;;7396812;19;20145;-78
2023/07/30 00:28:52;;;;;;;5.00;1.92;;;;;14.30;93817.00;;;;7401093;19;20133;-79
2023/07/30 00:31:29;;;;;;;4.63;1.63;;;;;14.40;93808.00;;;;7399799;19;20531;-79
2023/07/30 00:34:05;;;;;;;2.33;1.83;;;;;14.50;93815.00;;;;7401038;19;20125;-79
2023/07/30 00:36:33;;;;;;;2.13;1.60;;;;;14.60;93808.00;;;;7394294;19;20157;-78
2023/07/30 00:39:11;;;;;;;2.72;1.67;;;;;14.70;93820.00;;;;7394588;19;20125;-78
2023/07/30 00:41:38;;;;;;;1.50;1.40;;;;;14.70;93814.00;;;;7400045;19;20124;-79
2023/07/30 00:44:15;;;;;;;2.20;1.80;;;;;14.80;93812.00;;;;7400386;19;20619;-78
2023/07/30 00:46:43;;;;;;;1.92;1.65;;;;;14.70;93807.00;;;;7397497;19;20155;-79
2023/07/30 00:49:17;;;;;;;2.30;1.75;;;;;14.80;93813.00;;;;7399379;19;20215;-78
2023/07/30 00:51:55;;;;;;;2.00;1.35;;;;;14.90;93823.00;;;;7398252;19;20132;-78
2023/07/30 00:54:30;;;;;;;2.50;1.98;;;;;15.00;93830.00;;;;7398150;19;20716;-78
2023/07/30 00:56:58;;;;;;;3.03;1.77;;;;;15.00;93828.00;;;;7400773;19;20149;-76
2023/07/30 00:59:26;;;;;;;2.50;1.85;;;;;15.00;93822.00;;;;7398398;19;20617;-78
2023/07/30 01:02:02;;;;;;;5.90;2.20;;;;;15.00;93815.00;;;;7391901;19;20192;-80
2023/07/30 01:04:39;;;;;;;2.15;1.67;;;;;15.10;93813.00;;;;7402622;19;20543;-80
2023/07/30 01:07:15;;;;;;;2.00;1.58;;;;;15.00;93824.00;;;;7398089;19;20527;-78
2023/07/30 01:09:43;;;;;;;2.35;1.60;;;;;14.90;93821.00;;;;7398056;19;20646;-79
2023/07/30 01:12:19;;;;;;;2.72;1.70;;;;;14.90;93824.00;;;;7402242;19;20603;-78
2023/07/30 01:14:49;;;;;;;9.13;2.20;;;;;14.90;93823.00;;;;7400616;19;20151;-79
2023/07/30 01:17:26;;;;;;;2.47;1.80;;;;;14.90;93819.00;;;;7400767;19;20140;-80
2023/07/30 01:20:00;;;;;;;3.05;1.85;;;;;15.00;93823.00;;;;7401227;19;20147;-78
2023/07/30 01:22:34;;;;;;;2.03;1.83;;;;;15.10;93814.00;;;;7400368;19;20136;-80
2023/07/30 01:25:02;;;;;;;2.45;1.88;;;;;15.10;93816.00;;;;7400611;19;20136;-81
2023/07/30 01:27:37;;;;;;;2.58;1.88;;;;;15.10;93819.00;;;;7398563;19;20477;-80
2023/07/30 01:30:16;;;;;;;2.10;1.90;;;;;15.10;93831.00;;;;7399385;19;20636;-79
2023/07/30 01:32:51;;;;;;;2.65;1.90;;;;;15.30;93831.00;;;;7398724;19;20152;-79
2023/07/30 01:35:29;;;;;;;2.70;2.25;;;;;15.30;93830.00;;;;7399167;19;20218;-78
2023/07/30 01:38:05;;;;;;;2.40;2.13;;;;;15.30;93834.00;;;;7399943;19;20547;-78
2023/07/30 01:40:34;;;;;;;3.28;2.13;;;;;15.40;93832.00;;;;7398288;19;20521;-79
2023/07/30 01:43:08;;;;;;;3.00;2.28;;;;;15.40;93834.00;;;;7398987;19;20144;-79
2023/07/30 01:45:36;;;;;;;2.95;2.40;;;;;15.40;93839.00;;;;7398394;19;20152;-78
2023/07/30 01:48:10;;;;;;;4.43;2.25;;;;;15.40;93826.00;;;;7398185;19;20225;-80
2023/07/30 01:50:38;;;;;;;3.88;2.22;;;;;15.40;93824.00;;;;7398003;19;20133;-79
2023/07/30 01:53:12;;;;;;;5.40;2.25;;;;;15.30;93832.00;;;;7395893;19;20480;-78
2023/07/30 01:55:48;;;;;;;7.05;2.47;;;;;15.20;93831.00;;;;7398951;19;20153;-80
2023/07/30 01:58:26;;;;;;;2.22;1.83;;;;;15.20;93825.00;;;;7398019;19;20642;-79
2023/07/30 02:00:54;;;;;;;3.13;2.20;;;;;15.20;93824.00;;;;7396607;19;20141;-78
2023/07/30 02:03:35;;;;;;;4.55;2.20;;;;;15.20;93816.00;;;;7398132;19;20483;-79
2023/07/30 02:06:04;;;;;;;5.75;2.53;;;;;15.20;93816.00;;;;7398086;19;20156;-79
2023/07/30 02:08:41;;;;;;;4.20;2.50;;;;;15.30;93820.00;;;;7398723;19;20153;-79
2023/07/30 02:11:15;;;;;;;5.25;2.95;;;;;15.30;93825.00;;;;7397411;19;20167;-78
2023/07/30 02:13:51;;;;;;;8.32;3.97;;;;;15.40;93821.00;;;;7395391;19;20152;-77
2023/07/30 02:16:26;;;;;;;3.13;2.83;;;;;15.40;93817.00;;;;7397655;19;20145;-77
2023/07/30 02:19:01;;;;;;;4.22;3.05;;;;;15.40;93828.00;;;;7395444;19;20147;-76
2023/07/30 02:21:32;;;;;;;13.13;3.25;;;;;15.50;93819.00;;;;7396422;19;20169;-75
2023/07/30 02:24:09;;;;;;;3.08;2.78;;;;;15.60;93823.00;;;;7396224;19;20146;-80
2023/07/30 02:26:41;;;;;;;4.25;3.08;;;;;15.60;93823.00;;;;7394148;19;20145;-77
2023/07/30 02:29:22;;;;;;;7.53;3.42;;;;;15.50;93816.00;;;;7395840;19;20605;-78
2023/07/30 02:31:56;;;;;;;6.53;3.72;;;;;15.60;93819.00;;;;7396832;19;20133;-78
2023/07/30 02:34:31;;;;;;;5.93;3.40;;;;;15.50;93806.00;;;;7397038;19;20145;-78
2023/07/30 02:36:59;;;;;;;4.82;3.25;;;;;15.50;93815.00;;;;7395716;19;20131;-79
2023/07/30 02:39:34;;;;;;;7.88;3.22;;;;;15.50;93825.00;;;;7396480;19;20137;-78
2023/07/30 02:42:07;;;;;;;5.57;2.97;;;;;15.50;93827.00;;;;7397143;19;20608;-79
2023/07/30 02:44:42;;;;;;;5.05;3.05;;;;;15.50;93828.00;;;;7396568;19;20141;-79
2023/07/30 02:47:10;;;;;;;6.45;3.05;;;;;15.60;93834.00;;;;7393434;19;20148;-79
2023/07/30 02:49:43;;;;;;;5.00;2.88;;;;;15.50;93828.00;;;;7396171;19;20148;-78
2023/07/30 02:52:11;;;;;;;5.85;3.13;;;;;15.60;93828.00;;;;7394144;19;20217;-78
2023/07/30 02:54:46;;;;;;;4.28;3.13;;;;;15.60;93833.00;;;;7394577;19;20523;-80
2023/07/30 02:57:20;;;;;;;4.50;3.22;;;;;15.60;93839.00;;;;7395697;19;20217;-79
2023/07/30 02:59:55;;;;;;;9.80;3.28;;;;;15.60;93841.00;;;;7395318;19;20135;-77
2023/07/30 03:02:36;;;;;;;3.40;2.65;;;;;15.60;93839.00;;;;7391182;19;20183;-77
2023/07/30 03:05:11;;;;;;;3.17;2.85;;;;;15.60;93828.00;;;;7394497;19;20652;-79
2023/07/30 03:07:46;;;;;;;4.80;2.92;;;;;15.60;93831.00;;;;7391496;19;20145;-76
2023/07/30 03:10:21;;;;;;;3.78;2.85;;;;;15.60;93831.00;;;;7393457;19;20152;-77
2023/07/30 03:12:50;;;;;;;3.05;2.35;;;;;15.70;93838.00;;;;7395225;19;20600;-77
2023/07/30 03:15:18;;;;;;;2.92;2.47;;;;;15.60;93834.00;;;;7393948;19;20136;-78
2023/07/30 03:17:53;;;;;;;2.97;2.47;;;;;15.60;93835.00;;;;7393013;19;20163;-79
2023/07/30 03:20:21;;;;;;;3.03;2.60;;;;;15.70;93842.00;;;;7393638;19;20141;-79
2023/07/30 03:22:49;;;;;;;3.28;2.70;;;;;15.60;93842.00;;;;7393984;19;20500;-78
2023/07/30 03:25:23;;;;;;;3.03;2.30;;;;;15.60;93841.00;;;;7392981;19;20247;-78
2023/07/30 03:27:51;;;;;;;3.97;2.42;;;;;15.60;93831.00;;;;7389029;19;20485;-78
2023/07/30 03:30:32;;;;;;;4.70;2.50;;;;;15.60;93835.00;;;;7392503;19;20128;-78
2023/07/30 03:33:03;;;;;;;2.83;2.30;;;;;15.60;93839.00;;;;7399856;19;20135;-77
2023/07/30 03:35:37;;;;;;;6.03;2.85;;;;;15.60;93835.00;;;;7400393;19;20625;-76
2023/07/30 03:38:11;;;;;;;4.03;2.60;;;;;15.50;93848.00;;;;7401775;19;20133;-79
2023/07/30 03:40:47;;;;;;;2.72;2.45;;;;;15.60;93840.00;;;;7399999;19;20167;-78
2023/07/30 03:43:14;;;;;;;2.80;2.35;;;;;15.50;93839.00;;;;7398769;19;20157;-77
2023/07/30 03:45:48;;;;;;;3.35;2.28;;;;;15.50;93844.00;;;;7399915;19;20502;-78
2023/07/30 03:48:22;;;;;;;2.75;2.10;;;;;15.50;93844.00;;;;7397192;19;20177;-77
2023/07/30 03:50:56;;;;;;;2.63;2.20;;;;;15.50;93845.00;;;;7398982;19;20187;-77
2023/07/30 03:53:24;;;;;;;4.35;2.50;;;;;15.40;93843.00;;;;7398686;19;20165;-78
2023/07/30 03:55:58;;;;;;;3.17;2.38;;;;;15.40;93840.00;;;;7399818;19;20149;-77
2023/07/30 03:58:30;;;;;;;5.25;2.45;;;;;15.40;93847.00;;;;7399144;19;20571;-78
2023/07/30 04:01:11;;;;;;;4.50;2.25;;;;;15.40;93837.00;;;;7397439;19;20651;-77
2023/07/30 04:03:54;;;;;;;4.72;2.45;;;;;15.40;93841.00;;;;7398102;19;20178;-77
2023/07/30 04:06:29;;;;;;;3.90;2.70;;;;;15.40;93850.00;;;;7399457;19;20156;-77
2023/07/30 04:09:04;;;;;;;3.17;2.58;;;;;15.40;93849.00;;;;7391942;19;20648;-78
2023/07/30 04:11:38;;;;;;;3.92;2.47;;;;;15.50;93854.00;;;;7380352;19;20582;-80
2023/07/30 04:14:15;;;;;;;5.07;2.28;;;;;15.40;93863.00;;;;7389552;19;20184;-78
2023/07/30 04:16:50;;;;;;;3.65;2.28;;;;;15.40;93862.00;;;;7389034;19;20156;-79
2023/07/30 04:19:24;;;;;;;3.33;2.28;;;;;15.40;93870.00;;;;7388934;19;20139;-79
2023/07/30 04:21:58;;;;;;;3.25;2.40;;;;;15.40;93875.00;;;;7389299;19;20164;-78
2023/07/30 04:24:26;;;;;;;3.80;2.63;;;;;15.40;93877.00;;;;7390409;19;20141;-78
2023/07/30 04:27:01;;;;;;;5.82;2.60;;;;;15.50;93874.00;;;;7390784;19;20144;-80
2023/07/30 04:29:29;;;;;;;3.13;2.30;;;;;15.50;93883.00;;;;7390047;19;20718;-79
2023/07/30 04:32:04;;;;;;;2.83;2.50;;;;;15.50;93891.00;;;;7387637;19;20152;-79
2023/07/30 04:34:39;;;;;;;2.78;2.22;;;;;15.50;93881.00;;;;7388104;19;20550;-77
2023/07/30 04:37:15;;;;;;;4.35;2.47;;;;;15.60;93885.00;;;;7388589;19;20155;-80
2023/07/30 04:39:45;;;;;;;2.67;2.38;;;;;15.50;93878.00;;;;7385247;19;20145;-78
2023/07/30 04:42:19;;;;;;;3.97;2.40;;;;;15.60;93871.00;;;;7386404;19;20217;-79
2023/07/30 04:44:47;;;;;;;7.43;2.50;;;;;15.60;93883.00;;;;7387091;19;20145;-81
2023/07/30 04:47:21;;;;;;;2.95;2.63;;;;;15.60;93887.00;;;;7386139;19;20508;-80
2023/07/30 04:50:02;;;;;;;2.95;2.30;;;;;15.50;93880.00;;;;7386554;19;20147;-78
2023/07/30 04:52:39;;;;;;;2.45;2.17;;;;;15.50;93888.00;;;;7388146;19;20596;-80
2023/07/30 04:55:13;;;;;;;3.13;2.50;;;;;15.40;93892.00;;;;7388166;19;20918;-78
2023/07/30 04:57:51;;;;;;;6.95;2.70;;;;;15.50;93891.00;;;;7388801;19;20139;-80
2023/07/30 05:00:19;;;;;;;3.30;2.50;;;;;15.50;93894.00;;;;7386759;19;20148;-80
2023/07/30 05:03:03;;;;;;;3.90;2.47;;;;;15.50;93890.00;;;;7386416;19;20193;-80
2023/07/30 05:05:31;;;;;;;2.17;1.98;;;;;15.50;93889.00;;;;7382617;19;20169;-79
2023/07/30 05:08:06;;;;;;;2.63;2.28;;;;;15.60;93882.00;;;;7386687;19;20552;-80
2023/07/30 05:10:36;;;;;;;3.25;2.38;;;;;15.70;93886.00;;;;7386322;19;20148;-78
2023/07/30 05:13:12;;;;;;;2.92;2.38;;;;;15.70;93892.00;;;;7387883;19;20144;-79
2023/07/30 05:15:47;;;;;;;3.63;2.20;;;;;15.70;93898.00;;;;7384985;19;20597;-80
2023/07/30 05:18:25;;;;;;;2.70;2.50;;;;;15.70;93901.00;;;;7387627;19;20162;-81
2023/07/30 05:20:55;;;;;;;3.22;2.40;;;;;15.70;93914.00;;;;7388551;19;20156;-80
2023/07/30 05:23:30;;;;;;;3.28;2.50;;;;;15.70;93920.00;;;;7391493;19;20476;-79
2023/07/30 05:25:58;;;;;;;2.85;2.40;;;;;15.80;93902.00;;;;7389374;19;20145;-78
2023/07/30 05:28:33;;;;;;;3.40;2.60;;;;;16.00;93897.00;;;;7389020;19;20219;-80
2023/07/30 05:31:08;;;;;;;2.35;2.03;;;;;16.00;93896.00;;;;7390150;19;20144;-78
2023/07/30 05:33:44;;;;;;;3.25;2.33;;;;;16.10;93891.00;;;;7389441;19;20178;-78
2023/07/30 05:36:12;;;;;;;4.05;2.20;;;;;16.00;93889.00;;;;7392009;19;20133;-78
2023/07/30 05:38:48;;;;;;;2.50;2.20;;;;;16.00;93872.00;;;;7390039;19;20906;-79
2023/07/30 05:41:21;;;;;;;2.53;2.33;;;;;15.90;93869.00;;;;7388605;19;20608;-76
2023/07/30 05:43:55;;;;;;;6.13;2.13;;;;;15.90;93884.00;;;;7388390;19;20164;-79
2023/07/30 05:46:29;;;;;;;2.28;2.03;;;;;15.80;93885.00;;;;7388544;19;20161;-80
2023/07/30 05:48:57;;;;;;;2.40;2.08;;;;;15.80;93896.00;;;;7388097;19;20161;-79
2023/07/30 05:51:32;;;;;;;6.43;2.00;;;;;15.70;93897.00;;;;7387206;19;20144;-79
2023/07/30 05:54:00;;;;;;;3.13;2.30;;;;;15.60;93891.00;;;;7386656;19;20163;-78
2023/07/30 05:56:35;;;;;;;2.47;2.03;;;;;15.60;93885.00;;;;7390186;19;20140;-78
2023/07/30 05:59:09;;;;;;;3.33;2.28;;;;;15.70;93888.00;;;;7390056;19;20133;-80
2023/07/30 06:01:37;;;;;;;4.10;2.38;;;;;15.70;93880.00;;;;7387088;19;20644;-77
2023/07/30 06:04:17;;;;;;;4.65;2.45;;;;;15.80;93891.00;;;;7386299;19;20143;-79
2023/07/30 06:06:45;;;;;;;2.85;2.20;;;;;16.10;93872.00;;;;7388829;19;20152;-78
2023/07/30 06:09:19;;;;;;;2.88;2.17;;;;;16.00;93872.00;;;;7388029;19;20145;-80
2023/07/30 06:11:47;;;;;;;2.83;2.20;;;;;16.50;93863.00;;;;7388110;19;20160;-77
2023/07/30 06:14:21;;;;;;;5.38;2.33;;;;;17.00;93879.00;;;;7388892;19;20539;-80
2023/07/30 06:16:57;;;;;;;2.60;2.40;;;;;17.40;93868.00;;;;7389636;19;20145;-80
2023/07/30 06:19:32;;;;;;;2.90;2.40;;;;;17.50;93872.00;;;;7389516;19;20148;-80
2023/07/30 06:22:00;;;;;;;1.83;1.73;;;;;17.70;93888.00;;;;7388936;19;20160;-80
2023/07/30 06:24:35;;;;;;;4.13;2.00;;;;;17.70;93892.00;;;;7389523;19;20176;-82
2023/07/30 06:27:03;;;;;;;3.70;1.63;;;;;17.50;93894.00;;;;7389312;19;20141;-78
2023/07/30 06:29:37;;;;;;;1.73;1.58;;;;;17.40;93899.00;;;;7388320;19;20217;-83
2023/07/30 06:32:14;;;;;;;2.63;1.80;;;;;17.30;93906.00;;;;7389354;19;20229;-78
2023/07/30 06:34:48;;;;;;;2.00;1.42;;;;;17.10;93921.00;;;;7387447;19;20138;-81
2023/07/30 06:37:20;;;;;;;1.50;1.40;;;;;16.80;93927.00;;;;7387280;19;20163;-80
2023/07/30 06:39:57;;;;;;;2.63;1.40;;;;;16.80;93932.00;;;;7388350;19;20556;-80
2023/07/30 06:42:31;;;;;;;1.63;1.52;;;;;16.80;93944.00;;;;7387870;19;20152;-80
2023/07/30 06:45:11;;;;;;;3.50;1.50;;;;;16.70;93943.00;;;;7388817;19;21412;-82
2023/07/30 06:47:38;;;;;;;2.13;1.77;;;;;16.50;93956.00;;;;7388961;19;20145;-82
2023/07/30 06:50:09;;;;;;;1.73;1.40;;;;;16.50;93952.00;;;;7387175;19;20701;-77
2023/07/30 06:52:44;;;;;;;2.47;1.90;;;;;16.30;93955.00;;;;7383333;19;20165;-76
2023/07/30 06:55:19;;;;;;;1.50;1.40;;;;;16.20;93959.00;;;;7383571;19;20156;-76
2023/07/30 06:57:47;;;;;;;1.98;1.50;;;;;16.10;93954.00;;;;7385336;19;20166;-80
2023/07/30 07:00:24;;;;;;;2.25;1.60;;;;;16.00;93959.00;;;;7383972;19;20147;-77
2023/07/30 07:02:52;;;;;;;4.85;1.73;;;;;15.90;93956.00;;;;7383717;19;20534;-75
2023/07/30 07:05:33;;;;;;;2.00;1.70;;;;;16.00;93949.00;;;;7383991;19;21905;-76
2023/07/30 07:08:11;;;;;;;5.82;1.50;;;;;15.80;93943.00;;;;7391673;19;20161;-75
2023/07/30 07:10:49;;;;;;;1.63;1.52;;;;;15.90;93959.00;;;;7391451;19;20187;-74
2023/07/30 07:13:19;;;;;;;3.78;1.48;;;;;15.70;93955.00;;;;7389092;19;20141;-77
2023/07/30 07:15:56;;;;;;;1.70;1.60;;;;;15.70;93974.00;;;;7390991;19;20160;-81
2023/07/30 07:18:24;;;;;;;2.00;1.80;;;;;15.60;93973.00;;;;7391562;19;20147;-78
2023/07/30 07:20:54;;;;;;;2.08;1.50;;;;;15.80;93962.00;;;;7391337;19;20668;-75
2023/07/30 07:23:30;;;;;;;2.85;1.90;;;;;15.80;93962.00;;;;7391312;19;20165;-78
2023/07/30 07:26:05;;;;;;;2.30;1.98;;;;;15.70;93954.00;;;;7391272;19;20595;-77
2023/07/30 07:28:39;;;;;;;3.15;1.90;;;;;15.50;93956.00;;;;7390474;19;20208;-77
2023/07/30 07:31:08;;;;;;;2.20;2.03;;;;;15.70;93956.00;;;;7390750;19;20144;-77
2023/07/30 07:33:45;;;;;;;3.78;2.10;;;;;15.60;93955.00;;;;7390106;19;20173;-78
2023/07/30 07:36:14;;;;;;;3.38;2.40;;;;;15.80;93952.00;;;;7390218;19;20152;-76
2023/07/30 07:38:42;;;;;;;2.42;2.22;;;;;15.90;93949.00;;;;7390545;19;20613;-75
2023/07/30 07:41:17;;;;;;;3.97;2.45;;;;;15.90;93955.00;;;;7388804;19;20169;-76
2023/07/30 07:43:47;;;;;;;2.80;2.28;;;;;15.90;93957.00;;;;7388077;19;20173;-75
2023/07/30 07:46:27;;;;;;;2.05;1.80;;;;;16.10;93958.00;;;;7390971;19;20153;-75
2023/07/30 07:49:01;;;;;;;3.90;2.45;;;;;16.00;93962.00;;;;7390404;19;20183;-75
2023/07/30 07:51:39;;;;;;;2.30;2.10;;;;;16.10;93947.00;;;;7388550;19;20148;-78
2023/07/30 07:54:08;;;;;;;2.90;2.35;;;;;16.40;93959.00;;;;7390132;19;20181;-79
2023/07/30 07:56:52;;;;;;;2.38;2.10;;;;;16.50;93954.00;;;;7390261;19;20133;-75
2023/07/30 07:59:20;;;;;;;3.00;2.35;;;;;16.80;93953.00;;;;7390775;19;20129;-77
2023/07/30 08:02:00;;;;;;;5.55;2.60;;;;;16.80;93954.00;;;;7387552;19;20180;-76
2023/07/30 08:04:44;;;;;;;3.10;1.80;;;;;16.80;93947.00;;;;7388518;19;20624;-76
2023/07/30 08:07:12;;;;;;;3.20;2.15;;;;;16.80;93950.00;;;;7383852;19;20168;-75
2023/07/30 08:09:47;;;;;;;2.20;2.00;;;;;16.80;93942.00;;;;7386890;19;20215;-74
2023/07/30 08:12:16;;;;;;;3.95;1.90;;;;;16.80;93936.00;;;;7386563;19;20180;-74
2023/07/30 08:14:50;;;;;;;2.00;1.80;;;;;16.90;93944.00;;;;7387131;19;20608;-75
2023/07/30 08:17:23;;;;;;;2.80;1.98;;;;;16.80;93938.00;;;;7385884;19;20204;-74
2023/07/30 08:19:57;;;;;;;2.33;1.80;;;;;17.20;93938.00;;;;7388096;19;20175;-74
2023/07/30 08:22:29;;;;;;;4.30;2.03;;;;;17.40;93938.00;;;;7387346;19;20651;-75
2023/07/30 08:25:05;;;;;;;3.05;1.75;;;;;17.40;93947.00;;;;7386999;19;20159;-77
2023/07/30 08:27:38;;;;;;;6.65;1.95;;;;;17.70;93952.00;;;;7387640;19;20140;-75
2023/07/30 08:30:12;;;;;;;2.17;1.88;;;;;17.60;93964.00;;;;7387579;19;20463;-75
2023/07/30 08:32:42;;;;;;;1.90;1.70;;;;;17.30;93970.00;;;;7385819;19;20144;-76
2023/07/30 08:35:17;;;;;;;1.88;1.50;;;;;16.80;93976.00;;;;7387223;19;20169;-75
2023/07/30 08:37:49;;;;;;;2.08;1.88;;;;;16.30;93971.00;;;;7388563;19;20174;-76
2023/07/30 08:40:24;;;;;;;2.17;1.95;;;;;16.30;93981.00;;;;7386969;19;20144;-80
2023/07/30 08:42:53;;;;;;;2.45;1.70;;;;;16.20;93986.00;;;;7386521;19;20155;-74
2023/07/30 08:45:28;;;;;;;3.65;1.90;;;;;16.40;93985.00;;;;7388016;19;20152;-76
2023/07/30 08:48:03;;;;;;;2.15;1.95;;;;;16.50;93973.00;;;;7387529;19;20200;-75
2023/07/30 08:50:38;;;;;;;5.35;2.38;;;;;16.50;93966.00;;;;7387109;19;20480;-74
2023/07/30 08:53:14;;;;;;;3.60;2.03;;;;;17.00;93972.00;;;;7387672;19;20497;-77
2023/07/30 08:55:42;;;;;;;1.85;1.73;;;;;17.00;93970.00;;;;7387627;19;20144;-74
2023/07/30 08:58:11;;;;;;;2.58;1.95;;;;;17.20;93981.00;;;;7388452;19;20125;-77
2023/07/30 09:00:47;;;;;;;3.65;2.35;;;;;17.00;93979.00;;;;7386131;19;20156;-76
2023/07/30 09:03:26;;;;;;;2.28;2.08;;;;;17.10;93981.00;;;;7388067;19;20172;-75
2023/07/30 09:06:02;;;;;;;3.38;1.80;;;;;17.10;93977.00;;;;7390300;19;20178;-80
2023/07/30 09:08:36;;;;;;;3.50;1.95;;;;;17.30;93963.00;;;;7387602;19;20152;-73
2023/07/30 09:11:12;;;;;;;3.75;2.15;;;;;17.10;93961.00;;;;7386908;19;20137;-76
2023/07/30 09:13:53;;;;;;;2.08;1.60;;;;;17.20;93980.00;;;;7378965;19;20149;-77
2023/07/30 09:16:28;;;;;;;2.67;1.80;;;;;18.10;93967.00;;;;7386215;19;20229;-77
2023/07/30 09:19:05;;;;;;;2.85;1.95;;;;;18.40;93972.00;;;;7387858;19;20914;-77
2023/07/30 09:21:34;;;;;;;2.92;2.10;;;;;18.30;93965.00;;;;7385218;19;20153;-74
2023/07/30 09:24:09;;;;;;;3.10;2.08;;;;;18.10;93972.00;;;;7385803;19;20144;-74
2023/07/30 09:26:46;;;;;;;1.70;1.60;;;;;18.10;93984.00;;;;7385393;19;20124;-71
2023/07/30 09:29:21;;;;;;;2.70;1.83;;;;;18.50;93984.00;;;;7386920;19;20137;-75
2023/07/30 09:31:56;;;;;;;2.38;1.83;;;;;17.90;93978.00;;;;7388322;19;20155;-75
2023/07/30 09:34:25;;;;;;;2.78;1.75;;;;;18.20;93985.00;;;;7381095;19;20149;-74
2023/07/30 09:37:02;;;;;;;3.33;1.88;;;;;18.20;94008.00;;;;7372858;19;24381;-74
2023/07/30 09:39:30;;;;;;;2.08;1.67;;;;;18.00;94006.00;;;;7382717;19;20615;-76
2023/07/30 09:42:05;;;;;;;2.00;1.80;;;;;17.70;94022.00;;;;7383561;19;20155;-76
2023/07/30 09:44:40;;;;;;;3.78;1.80;;;;;17.50;94011.00;;;;7381140;19;20134;-76
2023/07/30 09:47:11;;;;;;;2.25;1.88;;;;;17.50;94017.00;;;;7380847;19;20161;-81
2023/07/30 09:49:45;;;;;;;2.30;2.08;;;;;17.30;94012.00;;;;7379779;19;20175;-74
2023/07/30 09:52:16;;;;;;;3.60;2.15;;;;;17.30;94007.00;;;;7381975;19;20264;-76
2023/07/30 09:54:55;;;;;;;4.72;2.08;;;;;17.10;94014.00;;;;7382023;19;20152;-74
2023/07/30 09:57:23;;;;;;;2.22;2.00;;;;;17.30;93998.00;;;;7381006;19;20152;-75
2023/07/30 09:59:57;;;;;;;3.10;2.30;;;;;18.10;93967.00;;;;7379553;19;20152;-78
2023/07/30 10:02:36;;;;;;;4.05;2.10;;;;;18.90;93986.00;;;;7377627;19;20198;-78
2023/07/30 10:05:20;;;;;;;6.22;2.28;;;;;19.20;93982.00;;;;7380347;19;20144;-74
2023/07/30 10:08:10;;;;;;;4.28;2.05;;;;;19.70;93992.00;;;;7381906;19;20133;-75
2023/07/30 10:10:45;;;;;;;5.13;2.38;;;;;19.50;94000.00;;;;7380407;19;20841;-74
2023/07/30 10:13:16;;;;;;;2.30;1.80;;;;;18.80;94010.00;;;;7379890;19;20144;-75
2023/07/30 10:15:51;;;;;;;3.58;2.05;;;;;18.50;94016.00;;;;7376064;19;20183;-76
2023/07/30 10:18:42;;;;;;;3.17;2.08;;;;;18.50;94019.00;;;;7384043;19;20135;-75
2023/07/30 10:21:25;;;;;;;5.95;2.40;;;;;18.00;94022.00;;;;7380358;19;20144;-76
2023/07/30 10:24:03;;;;;;;2.60;1.98;;;;;18.30;94023.00;;;;7381784;19;20187;-76
2023/07/30 10:26:37;;;;;;;2.05;1.83;;;;;18.40;94027.00;;;;7382572;19;20133;-76
2023/07/30 10:29:19;;;;;;;2.55;2.17;;;;;18.00;94031.00;;;;7379111;19;20586;-76
2023/07/30 10:31:57;;;;;;;2.95;2.05;;;;;18.20;94021.00;;;;7380800;19;20574;-78
2023/07/30 10:34:42;;;;;;;3.38;2.25;;;;;18.70;94009.00;;;;7379413;19;20156;-76
2023/07/30 10:37:21;;;;;;;2.70;1.95;;;;;18.90;94015.00;;;;7379205;19;20905;-76
2023/07/30 10:39:51;;;;;;;3.05;2.03;;;;;19.00;94023.00;;;;7375437;19;21119;-76
2023/07/30 10:42:33;;;;;;;2.78;1.98;;;;;18.80;94023.00;;;;7377812;19;20504;-78
2023/07/30 10:45:06;;;;;;;3.53;2.20;;;;;18.20;94035.00;;;;7380976;19;20161;-76
2023/07/30 10:47:41;;;;;;;8.90;2.35;;;;;17.70;94055.00;;;;7377905;19;20167;-77
2023/07/30 10:50:16;;;;;;;2.35;1.98;;;;;17.20;94056.00;;;;7379252;19;20152;-78
2023/07/30 10:52:51;;;;;;;5.22;2.20;;;;;17.20;94057.00;;;;7378915;19;20177;-76
2023/07/30 10:55:30;;;;;;;3.05;2.17;;;;;17.20;94049.00;;;;7378702;19;20158;-75
2023/07/30 10:58:05;;;;;;;3.20;2.13;;;;;17.50;94050.00;;;;7380047;19;20132;-75
2023/07/30 11:00:41;;;;;;;4.35;2.20;;;;;18.40;94051.00;;;;7378579;19;20648;-76
2023/07/30 11:03:21;;;;;;;3.35;2.20;;;;;18.10;94052.00;;;;7378470;19;20542;-78
2023/07/30 11:05:57;;;;;;;2.25;1.98;;;;;17.60;94034.00;;;;7376001;19;20173;-75
2023/07/30 11:08:41;;;;;;;4.70;2.25;;;;;18.80;94025.00;;;;7378648;19;20146;-77
2023/07/30 11:11:18;;;;;;;3.00;2.10;;;;;19.10;94007.00;;;;7375797;19;20144;-74
2023/07/30 11:13:48;;;;;;;2.25;1.90;;;;;20.20;94048.00;;;;7378399;19;20187;-75
2023/07/30 11:16:22;;;;;;;3.53;2.00;;;;;19.70;94031.00;;;;7378605;19;20137;-76
2023/07/30 11:18:51;;;;;;;2.95;2.03;;;;;19.60;94002.00;;;;7378904;19;20137;-76
2023/07/30 11:21:26;;;;;;;2.58;2.30;;;;;18.90;94031.00;;;;7374575;19;20588;-76
2023/07/30 11:24:01;;;;;;;2.92;2.20;;;;;19.40;94051.00;;;;7376504;19;20638;-75
2023/07/30 11:26:28;;;;;;;5.95;2.30;;;;;18.40;94051.00;;;;7378606;19;20192;-76
2023/07/30 11:28:56;;;;;;;4.30;2.25;;;;;18.30;94059.00;;;;7377390;19;20611;-76
2023/07/30 11:31:31;;;;;;;3.17;2.38;;;;;18.10;94061.00;;;;7380752;19;20492;-79
2023/07/30 11:33:59;;;;;;;3.28;2.53;;;;;18.40;94063.00;;;;7382704;19;20144;-76
2023/07/30 11:36:34;;;;;;;2.78;2.28;;;;;18.20;94052.00;;;;7382770;19;20580;-75
2023/07/30 11:39:04;;;;;;;5.38;2.30;;;;;18.40;94057.00;;;;7383106;19;20137;-77
2023/07/30 11:41:39;;;;;;;2.38;2.13;;;;;18.60;94066.00;;;;7382068;19;20207;-77
2023/07/30 11:44:07;;;;;;;4.82;2.10;;;;;19.20;94039.00;;;;7382852;19;20493;-80
2023/07/30 11:46:54;;;;;;;4.00;2.30;;;;;20.40;94045.00;;;;7380815;19;20140;-77
2023/07/30 11:49:22;;;;;;;5.80;2.13;;;;;20.30;94023.00;;;;7384719;19;20158;-75
2023/07/30 11:52:15;;;;;;;3.53;2.10;;;;;19.20;94058.00;;;;7383650;19;20196;-78
2023/07/30 11:54:43;;;;;;;2.42;1.80;;;;;18.40;94058.00;;;;7389860;19;20277;-77
2023/07/30 11:57:19;;;;;;;3.92;1.95;;;;;17.80;94038.00;;;;7390203;19;20144;-77
2023/07/30 11:59:47;;;;;;;4.50;1.98;;;;;19.60;94029.00;;;;7388223;19;20604;-77
2023/07/30 12:02:35;;;;;;;5.25;1.88;;;;;19.80;94035.00;;;;7385255;19;20180;-78
2023/07/30 12:05:03;;;;;;;2.88;1.92;;;;;20.70;94025.00;;;;7390086;19;20158;-77
2023/07/30 12:07:42;;;;;;;2.13;1.70;;;;;20.80;94049.00;;;;7389806;19;20131;-77
2023/07/30 12:10:17;;;;;;;4.75;2.00;;;;;21.10;94041.00;;;;7386251;19;20145;-75
2023/07/30 12:12:52;;;;;;;3.13;2.05;;;;;21.80;94031.00;;;;7389986;19;20709;-78
2023/07/30 12:15:22;;;;;;;2.15;1.90;;;;;20.90;94038.00;;;;7388660;19;20153;-79
2023/07/30 12:17:57;;;;;;;3.53;2.28;;;;;19.90;94066.00;;;;7386140;19;20140;-79
2023/07/30 12:20:28;;;;;;;2.67;1.90;;;;;20.70;94066.00;;;;7387851;19;20208;-80
2023/07/30 12:23:03;;;;;;;3.25;2.10;;;;;20.30;94040.00;;;;7389063;19;20635;-79
2023/07/30 12:25:30;;;;;;;2.58;1.75;;;;;20.90;94042.00;;;;7387335;19;20178;-77
2023/07/30 12:28:05;;;;;;;2.00;1.80;;;;;20.70;94076.00;;;;7390039;19;20469;-75
2023/07/30 12:30:36;;;;;;;1.80;1.70;;;;;20.60;94075.00;;;;7386997;19;20132;-78
2023/07/30 12:33:10;;;;;;;3.00;2.00;;;;;19.60;94088.00;;;;7387685;19;20173;-79
2023/07/30 12:35:46;;;;;;;3.88;2.05;;;;;20.90;94068.00;;;;7389715;19;20470;-78
2023/07/30 12:38:20;;;;;;;5.03;1.92;;;;;21.80;94073.00;;;;7390461;19;20128;-78
2023/07/30 12:40:54;;;;;;;4.25;2.00;;;;;21.30;94094.00;;;;7388192;19;20170;-78
2023/07/30 12:43:28;;;;;;;3.97;1.80;;;;;21.90;94071.00;;;;7385859;19;20508;-79
2023/07/30 12:45:56;;;;;;;3.70;1.98;;;;;22.20;94054.00;;;;7388333;19;20153;-77
2023/07/30 12:48:30;;;;;;;1.83;1.73;;;;;22.40;94062.00;;;;7390972;19;20519;-81
2023/07/30 12:51:06;;;;;;;3.35;1.67;;;;;22.10;94060.00;;;;7385185;19;20156;-76